CheckWX is a tool to help pilots better visualize weather data.  It is not intended as a substitute for an official pre-flight weather briefing.

16:29:37 UTC

WSSL METAR
Seletar Airport
Seletar, Singapore
Current

30 mins ago

WSSL 101600Z VRB01KT CAVOK 27/24 Q1010
Observed
Jul-10 @ 16:00 UTC
Wind
  • Variable at 1 KTS
Visibility
10,000+ meters
Flight Rules
VFR
Cloud Levels
  • Clear skies
Temperature
27°C / 81°F
Dewpoint
24°C / 75°F
Humidity
84%
Altimeter
29.82" Hg
Pressure
1009.92 hPa
Previous

1 hour ago

WSSL 101500Z 26002KT CAVOK 27/24 Q1009
Observed
Jul-10 @ 15:00 UTC
Wind
  • 260° at 2 KTS
Visibility
10,000+ meters
Flight Rules
VFR
Cloud Levels
  • Clear skies
Temperature
27°C / 81°F
Dewpoint
24°C / 75°F
Humidity
84%
Altimeter
29.79" Hg
Pressure
1008.92 hPa
Previous

2 hours ago

WSSL 101400Z VRB01KT CAVOK 28/24 Q1009
Observed
Jul-10 @ 14:00 UTC
Wind
  • Variable at 1 KTS
Visibility
10,000+ meters
Flight Rules
VFR
Cloud Levels
  • Clear skies
Temperature
28°C / 82°F
Dewpoint
24°C / 75°F
Humidity
79%
Altimeter
29.79" Hg
Pressure
1008.92 hPa